Time;durP1;ratioP1;P1;durP2;ratioP2;P2;SDS_P1;SDS_P2;PMS_P1;PMS_P2;Temp;Humidity;BMP_temperature;BMP_pressure;BME280_temperature;BME280_humidity;BME280_pressure;Samples;Min_cycle;Max_cycle;Signal;HPM_P1;HPM_P2
2024/01/05 00:00:25;;;;;;;;;;;;;;;3.32;100.00;94802.41;10547837;28;4877;-71
2024/01/05 00:05:28;;;;;;;;;;;;;;;3.36;100.00;94806.13;10552519;28;2045;-68
2024/01/05 00:10:31;;;;;;;;;;;;;;;3.36;100.00;94804.28;10549132;28;2006;-70
2024/01/05 00:15:33;;;;;;;;;;;;;;;3.39;100.00;94785.19;10554840;28;1984;-69
2024/01/05 00:20:36;;;;;;;;;;;;;;;3.42;100.00;94786.53;10552789;28;2239;-68
2024/01/05 00:25:38;;;;;;;;;;;;;;;3.44;100.00;94776.47;10560844;28;2162;-69
2024/01/05 00:30:40;;;;;;;;;;;;;;;3.37;100.00;94784.66;10552084;28;1932;-68
2024/01/05 00:35:43;;;;;;;;;;;;;;;3.36;100.00;94774.25;10551227;28;1921;-68
2024/01/05 00:40:46;;;;;;;;;;;;;;;3.38;100.00;94766.88;10554090;28;2249;-68
2024/01/05 00:45:49;;;;;;;;;;;;;;;3.29;100.00;94769.16;10553738;28;2297;-69
2024/01/05 00:50:51;;;;;;;;;;;;;;;3.32;100.00;94775.84;10557119;28;1920;-68
2024/01/05 00:55:53;;;;;;;;;;;;;;;3.32;100.00;94765.22;10556161;28;2076;-68
2024/01/05 01:00:56;;;;;;;;;;;;;;;3.25;100.00;94752.94;10555252;28;2038;-70
2024/01/05 01:05:58;;;;;;;;;;;;;;;3.23;100.00;94752.38;10569398;28;2061;-72
2024/01/05 01:11:01;;;;;;;;;;;;;;;3.08;100.00;94748.78;10558883;28;2041;-74
2024/01/05 01:16:04;;;;;;;;;;;;;;;2.94;100.00;94727.97;10564379;28;2009;-68
2024/01/05 01:21:06;;;;;;;;;;;;;;;2.85;100.00;94733.97;10574055;28;2151;-67
2024/01/05 01:26:09;;;;;;;;;;;;;;;2.87;100.00;94726.56;10581065;27;2145;-69
2024/01/05 01:31:11;;;;;;;;;;;;;;;2.89;100.00;94719.94;10562918;28;2015;-69
2024/01/05 01:36:15;;;;;;;;;;;;;;;2.89;100.00;94713.84;10570309;27;1951;-68
2024/01/05 01:41:17;;;;;;;;;;;;;;;2.88;100.00;94697.13;10558853;28;2675;-68
2024/01/05 01:46:20;;;;;;;;;;;;;;;2.81;100.00;94691.22;10559343;28;2085;-67
2024/01/05 01:51:22;;;;;;;;;;;;;;;2.77;100.00;94686.66;10568706;28;2012;-69
2024/01/05 01:56:25;;;;;;;;;;;;;;;2.82;100.00;94699.97;10572674;28;2063;-69
2024/01/05 02:01:27;;;;;;;;;;;;;;;2.85;100.00;94678.22;10564361;28;4727;-69
2024/01/05 02:06:30;;;;;;;;;;;;;;;2.87;100.00;94684.09;10563218;27;1930;-69
2024/01/05 02:11:32;;;;;;;;;;;;;;;2.92;100.00;94684.13;10563044;27;2094;-65
2024/01/05 02:16:35;;;;;;;;;;;;;;;2.81;100.00;94669.19;10562484;28;1979;-67
2024/01/05 02:21:37;;;;;;;;;;;;;;;2.76;100.00;94663.81;10563794;27;2272;-66
2024/01/05 02:26:42;;;;;;;;;;;;;;;2.72;100.00;94655.56;10554121;27;2096;-68
2024/01/05 02:31:45;;;;;;;;;;;;;;;2.65;100.00;94637.19;10563353;28;1863;-67
2024/01/05 02:36:47;;;;;;;;;;;;;;;2.72;100.00;94623.72;10562972;27;1993;-69
2024/01/05 02:41:50;;;;;;;;;;;;;;;2.65;100.00;94609.84;10559164;28;2494;-70
2024/01/05 02:46:52;;;;;;;;;;;;;;;2.50;100.00;94607.88;10550581;27;2488;-68
2024/01/05 02:51:54;;;;;;;;;;;;;;;2.49;100.00;94587.72;10549257;28;2049;-67
2024/01/05 02:56:57;;;;;;;;;;;;;;;2.50;100.00;94576.03;10558425;28;1958;-67
2024/01/05 03:02:00;;;;;;;;;;;;;;;2.45;100.00;94570.69;10546773;28;2077;-68
2024/01/05 03:07:03;;;;;;;;;;;;;;;2.46;100.00;94564.31;10549470;28;2011;-73
2024/01/05 03:12:06;;;;;;;;;;;;;;;2.43;100.00;94548.94;10556449;28;2037;-70
2024/01/05 03:17:08;;;;;;;;;;;;;;;2.48;100.00;94546.28;10563004;28;2288;-70
2024/01/05 03:22:10;;;;;;;;;;;;;;;2.48;100.00;94542.84;10565626;28;2049;-68
2024/01/05 03:27:14;;;;;;;;;;;;;;;2.48;100.00;94532.22;10555200;28;2163;-69
2024/01/05 03:32:17;;;;;;;;;;;;;;;2.50;100.00;94528.28;10570370;27;1987;-69
2024/01/05 03:37:19;;;;;;;;;;;;;;;2.45;100.00;94525.59;10560086;28;2367;-67
2024/01/05 03:42:22;;;;;;;;;;;;;;;2.49;100.00;94510.78;10568377;27;1923;-68
2024/01/05 03:47:24;;;;;;;;;;;;;;;2.55;100.00;94515.06;10559759;28;1988;-68
2024/01/05 03:52:26;;;;;;;;;;;;;;;2.60;100.00;94509.78;10561405;28;1943;-70
2024/01/05 03:57:30;;;;;;;;;;;;;;;2.66;100.00;94513.28;10564504;28;2130;-69
2024/01/05 04:02:32;;;;;;;;;;;;;;;2.63;100.00;94513.81;10548971;28;4970;-69
2024/01/05 04:07:35;;;;;;;;;;;;;;;2.59;100.00;94508.19;10552057;28;1913;-69
2024/01/05 04:12:37;;;;;;;;;;;;;;;2.58;100.00;94497.84;10559141;28;1998;-69
2024/01/05 04:17:40;;;;;;;;;;;;;;;2.59;100.00;94470.25;10551795;28;2200;-69
2024/01/05 04:22:42;;;;;;;;;;;;;;;2.51;100.00;94460.91;10555034;28;2018;-74
2024/01/05 04:27:45;;;;;;;;;;;;;;;2.44;100.00;94455.84;10552363;28;2030;-69
2024/01/05 04:32:47;;;;;;;;;;;;;;;2.42;100.00;94443.91;10535394;28;2067;-70
2024/01/05 04:37:50;;;;;;;;;;;;;;;2.42;100.00;94465.13;10577062;27;1939;-69
2024/01/05 04:42:53;;;;;;;;;;;;;;;2.44;100.00;94463.00;10575204;27;2059;-69
2024/01/05 04:47:56;;;;;;;;;;;;;;;2.50;100.00;94461.19;10540381;27;2437;-72
2024/01/05 04:52:58;;;;;;;;;;;;;;;2.55;100.00;94459.38;10559339;28;1910;-69
2024/01/05 04:58:01;;;;;;;;;;;;;;;2.59;100.00;94470.25;10553310;27;2135;-68
2024/01/05 05:03:03;;;;;;;;;;;;;;;2.55;100.00;94469.19;10560545;28;2060;-68
2024/01/05 05:08:06;;;;;;;;;;;;;;;2.51;100.00;94473.38;10558187;28;2002;-67
2024/01/05 05:13:09;;;;;;;;;;;;;;;2.56;100.00;94470.78;10555574;28;1990;-68
2024/01/05 05:18:12;;;;;;;;;;;;;;;2.49;100.00;94476.31;10556609;28;1974;-68
2024/01/05 05:23:14;;;;;;;;;;;;;;;2.50;100.00;94467.28;10555673;27;1982;-67
2024/01/05 05:28:17;;;;;;;;;;;;;;;2.60;100.00;94463.88;10555667;28;2042;-69
2024/01/05 05:33:20;;;;;;;;;;;;;;;2.61;100.00;94468.16;10555073;28;1992;-69
2024/01/05 05:38:23;;;;;;;;;;;;;;;2.59;100.00;94483.50;10559418;28;1997;-69
2024/01/05 05:43:25;;;;;;;;;;;;;;;2.50;100.00;94475.25;10557523;27;2313;-69
2024/01/05 05:48:27;;;;;;;;;;;;;;;2.51;100.00;94465.44;10556812;27;1985;-70
2024/01/05 05:53:30;;;;;;;;;;;;;;;2.72;100.00;94441.41;10558544;28;1934;-69
2024/01/05 05:58:32;;;;;;;;;;;;;;;2.77;100.00;94455.78;10558436;27;1979;-68
2024/01/05 06:03:35;;;;;;;;;;;;;;;2.85;100.00;94461.38;10556870;28;4941;-69
2024/01/05 06:08:38;;;;;;;;;;;;;;;3.03;100.00;94464.66;10552866;28;2120;-68
2024/01/05 06:13:40;;;;;;;;;;;;;;;3.06;100.00;94459.66;10554536;28;1977;-68
2024/01/05 06:18:42;;;;;;;;;;;;;;;3.08;100.00;94477.97;10550469;28;2098;-69
2024/01/05 06:23:45;;;;;;;;;;;;;;;3.13;100.00;94478.00;10557080;28;1936;-68
2024/01/05 06:28:47;;;;;;;;;;;;;;;3.13;100.00;94478.81;10560933;28;2150;-69
2024/01/05 06:33:50;;;;;;;;;;;;;;;3.10;100.00;94487.28;10549694;28;2492;-68
2024/01/05 06:38:52;;;;;;;;;;;;;;;3.05;100.00;94500.50;10556402;28;1895;-68
2024/01/05 06:43:55;;;;;;;;;;;;;;;3.09;100.00;94500.81;10553294;27;2079;-70
2024/01/05 06:48:57;;;;;;;;;;;;;;;3.12;100.00;94502.97;10549113;28;1933;-68
2024/01/05 06:54:00;;;;;;;;;;;;;;;3.11;100.00;94514.63;10554253;28;1989;-69
2024/01/05 06:59:03;;;;;;;;;;;;;;;3.10;100.00;94515.69;10551422;28;1895;-70
2024/01/05 07:04:07;;;;;;;;;;;;;;;3.09;100.00;94501.59;10557413;28;2005;-76
2024/01/05 07:09:10;;;;;;;;;;;;;;;3.12;100.00;94517.03;10564244;28;1985;-75
2024/01/05 07:14:12;;;;;;;;;;;;;;;3.16;100.00;94526.06;10558736;28;2097;-76
2024/01/05 07:19:15;;;;;;;;;;;;;;;3.17;100.00;94530.31;10552181;28;1955;-69
2024/01/05 07:24:18;;;;;;;;;;;;;;;3.21;100.00;94517.34;10556414;27;2320;-68
2024/01/05 07:29:21;;;;;;;;;;;;;;;3.32;100.00;94534.94;10551228;28;1940;-71
2024/01/05 07:34:24;;;;;;;;;;;;;;;3.37;100.00;94528.81;10548883;28;2069;-69
2024/01/05 07:39:26;;;;;;;;;;;;;;;3.46;100.00;94529.94;10554280;28;2097;-69
2024/01/05 07:44:29;;;;;;;;;;;;;;;3.52;100.00;94526.25;10550902;28;2059;-70
2024/01/05 07:49:32;;;;;;;;;;;;;;;3.67;100.00;94509.56;10557278;28;2304;-67
2024/01/05 07:54:35;;;;;;;;;;;;;;;3.77;100.00;94506.94;10551704;28;2064;-69
2024/01/05 07:59:38;;;;;;;;;;;;;;;3.91;100.00;94515.22;10556939;28;2066;-68
2024/01/05 08:04:40;;;;;;;;;;;;;;;3.96;100.00;94510.72;10553070;28;1896;-68
2024/01/05 08:09:43;;;;;;;;;;;;;;;4.17;100.00;94505.41;10540372;28;1978;-68
2024/01/05 08:14:45;;;;;;;;;;;;;;;4.29;100.00;94520.06;10549468;28;2334;-69
2024/01/05 08:19:48;;;;;;;;;;;;;;;4.40;100.00;94507.56;10551679;28;1931;-67
2024/01/05 08:24:50;;;;;;;;;;;;;;;4.57;100.00;94520.59;10542602;28;2514;-66
2024/01/05 08:29:53;;;;;;;;;;;;;;;4.71;100.00;94505.72;10547035;28;2186;-67
2024/01/05 08:34:55;;;;;;;;;;;;;;;4.81;100.00;94503.03;10547446;28;2005;-66
2024/01/05 08:39:58;;;;;;;;;;;;;;;4.73;100.00;94519.53;10552066;28;2065;-67
2024/01/05 08:45:00;;;;;;;;;;;;;;;4.81;100.00;94520.88;10550006;28;1964;-67
2024/01/05 08:50:03;;;;;;;;;;;;;;;4.81;100.00;94521.66;10551886;28;2061;-68
2024/01/05 08:55:05;;;;;;;;;;;;;;;4.93;100.00;94525.91;10558151;28;2155;-68
2024/01/05 09:00:09;;;;;;;;;;;;;;;5.09;100.00;94527.47;10554168;28;1920;-70
2024/01/05 09:05:12;;;;;;;;;;;;;;;5.16;100.00;94514.69;10545456;28;2179;-67
2024/01/05 09:10:14;;;;;;;;;;;;;;;5.33;100.00;94522.38;10556145;28;1865;-67
2024/01/05 09:15:17;;;;;;;;;;;;;;;5.56;100.00;94510.31;10549336;28;2124;-69
2024/01/05 09:20:20;;;;;;;;;;;;;;;5.75;100.00;94505.16;10555703;28;1899;-68
2024/01/05 09:25:22;;;;;;;;;;;;;;;5.97;100.00;94505.59;10560896;27;2064;-73
2024/01/05 09:30:25;;;;;;;;;;;;;;;6.27;100.00;94520.63;10562310;28;1969;-73
2024/01/05 09:35:27;;;;;;;;;;;;;;;6.49;100.00;94528.25;10562029;27;1974;-69
2024/01/05 09:40:30;;;;;;;;;;;;;;;6.39;100.00;94520.31;10560365;27;2373;-69
2024/01/05 09:45:34;;;;;;;;;;;;;;;6.53;100.00;94513.25;10557641;27;1887;-72
2024/01/05 09:50:36;;;;;;;;;;;;;;;6.60;100.00;94507.59;10556005;28;2080;-71
2024/01/05 09:55:39;;;;;;;;;;;;;;;6.77;100.00;94498.09;10550356;27;2057;-69
2024/01/05 10:00:42;;;;;;;;;;;;;;;7.28;100.00;94481.56;10551895;28;1967;-69
2024/01/05 10:05:44;;;;;;;;;;;;;;;7.22;100.00;94487.25;10554950;28;2312;-68
2024/01/05 10:10:47;;;;;;;;;;;;;;;7.37;100.00;94484.41;10554147;28;1986;-68
2024/01/05 10:15:50;;;;;;;;;;;;;;;7.37;100.00;94472.94;10551657;28;1971;-69
2024/01/05 10:20:52;;;;;;;;;;;;;;;7.32;100.00;94466.56;10554854;28;2033;-67
2024/01/05 10:25:55;;;;;;;;;;;;;;;7.40;100.00;94461.69;10545596;28;1930;-69
2024/01/05 10:30:57;;;;;;;;;;;;;;;7.38;100.00;94440.59;10555519;28;1999;-69
2024/01/05 10:36:00;;;;;;;;;;;;;;;7.52;100.00;94444.16;10535241;28;2061;-69
2024/01/05 10:41:02;;;;;;;;;;;;;;;7.53;100.00;94444.94;10552750;28;2061;-68
2024/01/05 10:46:05;;;;;;;;;;;;;;;7.68;100.00;94438.59;10555025;28;2325;-68
2024/01/05 10:51:07;;;;;;;;;;;;;;;7.66;100.00;94443.44;10553504;27;1967;-70
2024/01/05 10:56:10;;;;;;;;;;;;;;;7.90;100.00;94433.50;10548821;28;1952;-69
2024/01/05 11:01:12;;;;;;;;;;;;;;;8.04;100.00;94439.69;10544418;28;5044;-69
2024/01/05 11:06:15;;;;;;;;;;;;;;;8.12;100.00;94430.22;10546172;28;2120;-71
2024/01/05 11:11:17;;;;;;;;;;;;;;;8.25;100.00;94431.38;10549012;28;1925;-70
2024/01/05 11:16:20;;;;;;;;;;;;;;;8.37;100.00;94437.09;10551628;28;1938;-71
2024/01/05 11:21:22;;;;;;;;;;;;;;;8.55;100.00;94433.59;10547493;28;1968;-70
2024/01/05 11:26:25;;;;;;;;;;;;;;;8.76;100.00;94420.63;10543612;28;2037;-72
2024/01/05 11:31:27;;;;;;;;;;;;;;;8.90;100.00;94407.25;10531993;27;1974;-68
2024/01/05 11:36:30;;;;;;;;;;;;;;;9.06;100.00;94408.59;10548939;28;1966;-70
2024/01/05 11:41:32;;;;;;;;;;;;;;;9.19;100.00;94383.66;10540611;28;2381;-67
2024/01/05 11:46:35;;;;;;;;;;;;;;;9.32;99.35;94370.56;10541442;28;2111;-68
2024/01/05 11:51:37;;;;;;;;;;;;;;;9.08;100.00;94371.53;10549904;28;2037;-72
2024/01/05 11:56:40;;;;;;;;;;;;;;;9.05;100.00;94382.88;10554663;27;2041;-68
2024/01/05 12:01:42;;;;;;;;;;;;;;;9.49;100.00;94365.38;10549848;27;4984;-72
2024/01/05 12:06:44;;;;;;;;;;;;;;;9.47;100.00;94370.22;10550356;28;2096;-68
2024/01/05 12:11:47;;;;;;;;;;;;;;;9.79;100.00;94369.25;10537940;28;1890;-67
2024/01/05 12:16:50;;;;;;;;;;;;;;;9.95;99.81;94361.69;10546874;28;2372;-68
2024/01/05 12:21:52;;;;;;;;;;;;;;;9.91;99.61;94361.47;10552001;28;2061;-68
2024/01/05 12:26:55;;;;;;;;;;;;;;;9.81;100.00;94336.78;10551201;28;1925;-71
2024/01/05 12:31:58;;;;;;;;;;;;;;;9.25;100.00;94344.13;10551410;28;2014;-70
2024/01/05 12:37:00;;;;;;;;;;;;;;;9.39;100.00;94349.47;10554585;28;2338;-71
2024/01/05 12:42:03;;;;;;;;;;;;;;;9.13;100.00;94341.97;10548023;28;1869;-72
2024/01/05 12:47:06;;;;;;;;;;;;;;;8.88;100.00;94329.06;10541982;28;1959;-71
2024/01/05 12:52:09;;;;;;;;;;;;;;;8.88;100.00;94324.50;10551739;28;1908;-70
2024/01/05 12:57:14;;;;;;;;;;;;;;;8.85;100.00;94329.66;10553839;28;1914;-69
2024/01/05 13:02:18;;;;;;;;;;;;;;;8.75;100.00;94345.94;10552194;28;4960;-70
2024/01/05 13:07:23;;;;;;;;;;;;;;;8.77;100.00;94354.44;10557090;28;1895;-68
2024/01/05 13:12:27;;;;;;;;;;;;;;;8.87;100.00;94355.06;10561429;28;1958;-72
2024/01/05 13:17:32;;;;;;;;;;;;;;;8.79;100.00;94376.41;10556785;28;1949;-71
2024/01/05 13:22:36;;;;;;;;;;;;;;;8.75;100.00;94364.69;10550210;28;1865;-69
2024/01/05 13:27:40;;;;;;;;;;;;;;;8.66;100.00;94376.09;10555767;27;1994;-71
2024/01/05 13:32:45;;;;;;;;;;;;;;;8.48;100.00;94401.03;10557662;28;1998;-70
2024/01/05 13:37:49;;;;;;;;;;;;;;;8.30;100.00;94399.16;10555474;28;1997;-70
2024/01/05 13:42:53;;;;;;;;;;;;;;;8.23;100.00;94410.25;10552446;28;2273;-68
2024/01/05 13:47:58;;;;;;;;;;;;;;;8.07;100.00;94411.56;10549847;28;2077;-80
2024/01/05 13:53:03;;;;;;;;;;;;;;;7.79;100.00;94434.72;10555941;27;1886;-73
2024/01/05 13:58:08;;;;;;;;;;;;;;;7.40;100.00;94433.06;10556815;28;1910;-70
2024/01/05 14:03:13;;;;;;;;;;;;;;;7.02;100.00;94432.16;10555140;28;5012;-74
2024/01/05 14:08:18;;;;;;;;;;;;;;;6.77;100.00;94444.69;10552943;27;1998;-73
2024/01/05 14:13:25;;;;;;;;;;;;;;;6.53;100.00;94446.50;10560327;28;1874;-69
2024/01/05 14:18:30;;;;;;;;;;;;;;;6.43;100.00;94450.06;10546913;28;2049;-69
2024/01/05 14:23:35;;;;;;;;;;;;;;;6.35;100.00;94447.19;10553838;28;2626;-71
2024/01/05 14:28:39;;;;;;;;;;;;;;;6.36;100.00;94441.59;10530208;28;2040;-76
2024/01/05 14:33:43;;;;;;;;;;;;;;;6.23;100.00;94447.53;10552007;28;2146;-69
2024/01/05 14:38:48;;;;;;;;;;;;;;;6.16;100.00;94468.41;10557871;28;2030;-67
2024/01/05 14:43:52;;;;;;;;;;;;;;;6.06;100.00;94469.28;10555463;27;1972;-68
2024/01/05 14:48:57;;;;;;;;;;;;;;;6.08;100.00;94463.66;10557990;28;1983;-67
2024/01/05 14:54:04;;;;;;;;;;;;;;;6.09;100.00;94462.59;10552593;27;2073;-69
2024/01/05 14:59:30;;;;;;;;;;;;;;;6.08;100.00;94463.66;10550473;28;4842;-68
2024/01/05 15:04:35;;;;;;;;;;;;;;;6.10;100.00;94466.84;10550250;28;2253;-67
2024/01/05 15:09:40;;;;;;;;;;;;;;;5.97;100.00;94463.72;10554243;27;2052;-67
2024/01/05 15:14:46;;;;;;;;;;;;;;;5.93;100.00;94468.03;10549185;28;2037;-67
2024/01/05 15:19:51;;;;;;;;;;;;;;;5.89;100.00;94461.63;10552703;28;1983;-67
2024/01/05 15:24:53;;;;;;;;;;;;;;;5.81;100.00;94451.53;10546015;28;1958;-68
2024/01/05 15:29:57;;;;;;;;;;;;;;;5.69;100.00;94445.72;10546513;28;2058;-68
2024/01/05 15:35:02;;;;;;;;;;;;;;;5.61;100.00;94440.97;10553218;28;1962;-67
2024/01/05 15:40:06;;;;;;;;;;;;;;;5.61;100.00;94439.13;10549403;28;1953;-68
2024/01/05 15:45:11;;;;;;;;;;;;;;;5.57;100.00;94429.25;10546217;28;1927;-68
2024/01/05 15:50:15;;;;;;;;;;;;;;;5.59;100.00;94440.44;10550753;28;1983;-69
2024/01/05 15:55:21;;;;;;;;;;;;;;;5.50;100.00;94439.44;10547062;28;2266;-67
2024/01/05 16:00:26;;;;;;;;;;;;;;;5.51;100.00;94438.34;10561590;27;4968;-68
2024/01/05 16:05:28;;;;;;;;;;;;;;;5.56;100.00;94438.34;10547333;28;2127;-68
2024/01/05 16:10:32;;;;;;;;;;;;;;;5.62;100.00;94439.91;10552296;28;2119;-68
2024/01/05 16:15:37;;;;;;;;;;;;;;;5.62;100.00;94440.69;10547052;28;2049;-68
2024/01/05 16:20:45;;;;;;;;;;;;;;;5.63;100.00;94442.28;10549792;28;2151;-68
2024/01/05 16:25:49;;;;;;;;;;;;;;;5.67;100.00;94445.22;10547336;28;1883;-68
2024/01/05 16:30:54;;;;;;;;;;;;;;;5.70;100.00;94447.31;10531570;27;2046;-70
2024/01/05 16:35:58;;;;;;;;;;;;;;;5.72;100.00;94437.16;10552018;28;2035;-72
2024/01/05 16:41:03;;;;;;;;;;;;;;;5.75;100.00;94436.63;10553420;28;2111;-67
2024/01/05 16:46:07;;;;;;;;;;;;;;;5.76;100.00;94435.56;10555331;27;2087;-67
2024/01/05 16:51:11;;;;;;;;;;;;;;;5.71;100.00;94432.91;10566471;27;1992;-66
2024/01/05 16:56:22;;;;;;;;;;;;;;;5.74;100.00;94434.25;10559789;27;2260;-67
2024/01/05 17:01:27;;;;;;;;;;;;;;;5.77;100.00;94437.16;10552575;28;5018;-71
2024/01/05 17:06:32;;;;;;;;;;;;;;;5.84;100.00;94440.31;10557110;28;1957;-68
2024/01/05 17:11:36;;;;;;;;;;;;;;;5.84;100.00;94436.84;10553963;28;1981;-68
2024/01/05 17:16:41;;;;;;;;;;;;;;;5.85;100.00;94444.59;10555736;28;2142;-69
2024/01/05 17:21:47;;;;;;;;;;;;;;;5.86;100.00;94442.72;10564800;27;2124;-70
2024/01/05 17:26:50;;;;;;;;;;;;;;;5.84;100.00;94436.84;10554194;28;2131;-68
2024/01/05 17:31:54;;;;;;;;;;;;;;;5.80;100.00;94433.94;10552918;28;2102;-67
2024/01/05 17:36:58;;;;;;;;;;;;;;;5.78;100.00;94443.28;10552466;28;2045;-68
2024/01/05 17:42:02;;;;;;;;;;;;;;;5.77;100.00;94441.69;10556472;27;2241;-67
2024/01/05 17:47:07;;;;;;;;;;;;;;;5.79;100.00;94445.69;10553179;28;2003;-68
2024/01/05 17:52:11;;;;;;;;;;;;;;;5.77;100.00;94447.03;10554721;28;2061;-68
2024/01/05 17:57:16;;;;;;;;;;;;;;;5.74;100.00;94443.03;10563178;28;2337;-66
2024/01/05 18:02:23;;;;;;;;;;;;;;;5.68;100.00;94444.94;10554213;28;4886;-67
2024/01/05 18:07:28;;;;;;;;;;;;;;;5.72;100.00;94450.50;10549870;28;1985;-67
2024/01/05 18:12:33;;;;;;;;;;;;;;;5.66;100.00;94451.59;10552657;28;1943;-67
2024/01/05 18:17:37;;;;;;;;;;;;;;;5.73;100.00;94440.66;10545780;28;1963;-66
2024/01/05 18:23:03;;;;;;;;;;;;;;;5.67;100.00;94448.69;10553713;28;2023;-69
2024/01/05 18:28:09;;;;;;;;;;;;;;;5.67;100.00;94453.22;10554853;27;2146;-66
2024/01/05 18:33:13;;;;;;;;;;;;;;;5.64;100.00;94453.75;10556956;28;1961;-66
2024/01/05 18:38:17;;;;;;;;;;;;;;;5.66;100.00;94457.75;10551337;28;2425;-65
2024/01/05 18:43:22;;;;;;;;;;;;;;;5.55;100.00;94445.53;10550343;27;2049;-66
2024/01/05 18:48:27;;;;;;;;;;;;;;;5.57;100.00;94446.06;10552922;28;2031;-66
2024/01/05 18:53:32;;;;;;;;;;;;;;;5.57;100.00;94450.59;10546121;28;1982;-67
2024/01/05 18:58:36;;;;;;;;;;;;;;;5.65;100.00;94455.34;10555148;28;1994;-67
2024/01/05 19:03:41;;;;;;;;;;;;;;;5.64;100.00;94457.22;10549862;28;5062;-67
2024/01/05 19:08:46;;;;;;;;;;;;;;;5.69;100.00;94451.84;10547896;28;2116;-73
2024/01/05 19:13:51;;;;;;;;;;;;;;;5.65;100.00;94450.00;10556779;28;2124;-71
2024/01/05 19:19:17;;;;;;;;;;;;;;;5.68;100.00;94449.47;10551801;28;2285;-67
2024/01/05 19:24:23;;;;;;;;;;;;;;;5.71;100.00;94451.56;10555095;28;2007;-66
2024/01/05 19:29:25;;;;;;;;;;;;;;;5.70;100.00;94450.78;10550684;28;2038;-67
2024/01/05 19:34:28;;;;;;;;;;;;;;;5.70;100.00;94453.44;10544489;27;2054;-68
2024/01/05 19:39:31;;;;;;;;;;;;;;;5.63;100.00;94446.84;10553402;28;2089;-67
2024/01/05 19:44:33;;;;;;;;;;;;;;;5.61;100.00;94443.66;10550384;28;2000;-67
2024/01/05 19:49:35;;;;;;;;;;;;;;;5.58;100.00;94444.19;10547331;28;1921;-69
2024/01/05 19:54:38;;;;;;;;;;;;;;;5.68;100.00;94438.81;10556321;28;2088;-69
2024/01/05 19:59:41;;;;;;;;;;;;;;;5.66;100.00;94438.28;10553375;28;1961;-68
2024/01/05 20:04:44;;;;;;;;;;;;;;;5.59;100.00;94440.44;10552110;28;2281;-66
2024/01/05 20:09:47;;;;;;;;;;;;;;;5.63;100.00;94425.50;10552877;28;1922;-67
2024/01/05 20:14:50;;;;;;;;;;;;;;;5.58;100.00;94436.19;10551903;28;2274;-67
2024/01/05 20:19:52;;;;;;;;;;;;;;;5.60;100.00;94431.41;10565150;28;1910;-68
2024/01/05 20:24:55;;;;;;;;;;;;;;;5.68;100.00;94428.16;10561453;28;1459;-70
2024/01/05 20:29:59;;;;;;;;;;;;;;;5.71;100.00;94435.59;10560051;28;1463;-68
2024/01/05 20:35:01;;;;;;;;;;;;;;;5.69;100.00;94440.41;10562544;28;1849;-70
2024/01/05 20:40:04;;;;;;;;;;;;;;;5.76;100.00;94443.56;10552158;28;1993;-68
2024/01/05 20:45:10;;;;;;;;;;;;;;;5.65;100.00;94436.69;10560160;28;1739;-68
2024/01/05 20:50:14;;;;;;;;;;;;;;;5.64;100.00;94435.88;10558758;28;1467;-69
2024/01/05 20:55:17;;;;;;;;;;;;;;;5.59;100.00;94446.56;10562857;28;1437;-69
2024/01/05 21:00:20;;;;;;;;;;;;;;;5.53;100.00;94430.88;10559973;28;1906;-70
2024/01/05 21:05:22;;;;;;;;;;;;;;;5.52;100.00;94438.06;10566292;28;1436;-69
2024/01/05 21:10:25;;;;;;;;;;;;;;;5.41;100.00;94420.56;10565193;28;1677;-69
2024/01/05 21:15:28;;;;;;;;;;;;;;;5.39;100.00;94415.47;10564145;28;1523;-70
2024/01/05 21:20:30;;;;;;;;;;;;;;;5.27;100.00;94416.88;10569991;27;1910;-69
2024/01/05 21:25:33;;;;;;;;;;;;;;;5.15;100.00;94425.19;10564235;28;1535;-68
2024/01/05 21:30:36;;;;;;;;;;;;;;;5.15;100.00;94419.84;10566686;28;1730;-68
2024/01/05 21:35:38;;;;;;;;;;;;;;;4.99;100.00;94418.31;10570367;28;1574;-71
2024/01/05 21:40:41;;;;;;;;;;;;;;;4.89;100.00;94427.91;10560068;28;2250;-69
2024/01/05 21:45:43;;;;;;;;;;;;;;;4.93;100.00;94438.84;10568194;28;1597;-76
2024/01/05 21:50:46;;;;;;;;;;;;;;;5.04;100.00;94431.63;10566024;28;1454;-70
2024/01/05 21:55:48;;;;;;;;;;;;;;;4.95;100.00;94439.34;10568442;28;1408;-68
2024/01/05 22:00:51;;;;;;;;;;;;;;;5.01;100.00;94450.78;10573718;28;1976;-67
2024/01/05 22:05:54;;;;;;;;;;;;;;;4.86;100.00;94435.66;10567144;28;1908;-73
2024/01/05 22:10:56;;;;;;;;;;;;;;;4.80;100.00;94442.06;10555156;28;1944;-68
2024/01/05 22:15:59;;;;;;;;;;;;;;;4.76;100.00;94439.13;10553849;27;2332;-67
2024/01/05 22:21:01;;;;;;;;;;;;;;;4.81;100.00;94447.13;10553231;28;2073;-68
2024/01/05 22:26:04;;;;;;;;;;;;;;;4.95;100.00;94446.56;10556418;28;2105;-68
2024/01/05 22:31:06;;;;;;;;;;;;;;;4.99;100.00;94443.09;10553346;28;1994;-68
2024/01/05 22:36:09;;;;;;;;;;;;;;;5.02;100.00;94436.41;10558627;27;2430;-69
2024/01/05 22:41:12;;;;;;;;;;;;;;;4.96;100.00;94435.63;10555806;28;1926;-69
2024/01/05 22:46:16;;;;;;;;;;;;;;;4.81;100.00;94430.34;10556950;28;1987;-67
2024/01/05 22:51:18;;;;;;;;;;;;;;;4.75;100.00;94426.09;10535018;28;2182;-68
2024/01/05 22:56:21;;;;;;;;;;;;;;;4.88;100.00;94426.31;10554313;28;2136;-68
2024/01/05 23:01:23;;;;;;;;;;;;;;;4.79;100.00;94427.97;10550997;27;5026;-68
2024/01/05 23:06:26;;;;;;;;;;;;;;;4.69;100.00;94432.50;10550943;27;2221;-69
2024/01/05 23:11:29;;;;;;;;;;;;;;;4.80;100.00;94434.88;10543922;27;2016;-67
2024/01/05 23:16:31;;;;;;;;;;;;;;;4.76;100.00;94433.81;10548219;28;2028;-68
2024/01/05 23:21:33;;;;;;;;;;;;;;;4.71;100.00;94431.19;10554553;28;1998;-68
2024/01/05 23:26:36;;;;;;;;;;;;;;;4.76;100.00;94428.47;10545878;28;2085;-66
2024/01/05 23:31:40;;;;;;;;;;;;;;;4.61;100.00;94433.84;10551659;28;2377;-68
2024/01/05 23:36:43;;;;;;;;;;;;;;;4.57;100.00;94428.25;10545013;28;1961;-67
2024/01/05 23:41:45;;;;;;;;;;;;;;;4.65;100.00;94432.25;10542303;27;2349;-67
2024/01/05 23:46:48;;;;;;;;;;;;;;;4.68;100.00;94439.69;10546468;28;2109;-67
2024/01/05 23:51:50;;;;;;;;;;;;;;;4.84;100.00;94435.16;10531606;28;2312;-68
2024/01/05 23:56:53;;;;;;;;;;;;;;;4.93;100.00;94444.16;10550394;28;1948;-68
